Time;durP1;ratioP1;P1;durP2;ratioP2;P2;SDS_P1;SDS_P2;PMS_P1;PMS_P2;Temp;Humidity;BMP_temperature;BMP_pressure;BME280_temperature;BME280_humidity;BME280_pressure;Samples;Min_cycle;Max_cycle;Signal;HPM_P1;HPM_P2
2020/12/16 00:00:36;;;;;;;12.36;7.40;;;;;;;8.02;91.55;99257.47;2017274;80;20834;-75
2020/12/16 00:03:37;;;;;;;35.24;9.44;;;;;;;8.03;91.43;99264.38;2017995;80;20358;-74
2020/12/16 00:06:39;;;;;;;13.40;8.69;;;;;;;8.02;91.22;99275.56;2017025;80;20373;-75
2020/12/16 00:09:41;;;;;;;12.75;8.21;;;;;;;7.98;91.22;99288.50;2016013;80;20777;-75
2020/12/16 00:12:43;;;;;;;10.49;6.91;;;;;;;7.97;91.39;99281.59;2015594;80;20309;-74
2020/12/16 00:15:45;;;;;;;12.82;7.39;;;;;;;7.98;91.44;99294.53;2016347;80;20317;-74
2020/12/16 00:18:47;;;;;;;11.09;7.20;;;;;;;7.99;91.36;99295.41;2015878;80;20390;-74
2020/12/16 00:21:49;;;;;;;10.90;7.04;;;;;;;7.99;91.33;99300.56;2015987;80;20337;-75
2020/12/16 00:24:51;;;;;;;10.11;6.68;;;;;;;7.98;91.30;99299.69;2016816;80;20394;-75
2020/12/16 00:27:52;;;;;;;9.09;6.15;;;;;;;7.97;91.35;99286.78;2016209;80;20313;-75
2020/12/16 00:30:54;;;;;;;8.98;6.13;;;;;;;7.99;91.46;99282.47;2016008;80;20309;-74
2020/12/16 00:33:56;;;;;;;9.14;6.78;;;;;;;8.01;91.43;99298.84;2065605;69;20343;-77
2020/12/16 00:36:58;;;;;;;7.99;6.14;;;;;;;8.03;91.35;99290.22;2016255;80;20689;-77
2020/12/16 00:39:59;;;;;;;13.41;7.75;;;;;;;8.03;91.29;99274.72;2015762;80;20793;-77
2020/12/16 00:43:01;;;;;;;12.99;8.02;;;;;;;8.03;91.19;99279.03;2016178;80;20351;-77
2020/12/16 00:46:04;;;;;;;12.18;7.94;;;;;;;8.04;91.31;99281.63;2016746;80;20332;-76
2020/12/16 00:49:06;;;;;;;12.96;8.40;;;;;;;8.07;91.37;99291.97;2016531;80;20936;-77
2020/12/16 00:52:07;;;;;;;15.77;8.66;;;;;;;8.05;91.31;99290.25;2015996;80;20346;-77
2020/12/16 00:55:09;;;;;;;20.90;9.36;;;;;;;8.06;91.41;99292.81;2016801;80;20718;-77
2020/12/16 00:58:11;;;;;;;17.54;9.77;;;;;;;8.09;91.52;99292.00;2017093;80;20745;-76
2020/12/16 01:01:12;;;;;;;34.59;12.13;;;;;;;8.11;91.49;99293.72;2015786;80;20309;-77
2020/12/16 01:04:14;;;;;;;28.46;12.20;;;;;;;8.14;91.47;99298.03;2016340;80;20351;-77
2020/12/16 01:07:16;;;;;;;21.88;11.24;;;;;;;8.12;91.51;99304.94;2016531;80;20338;-77
2020/12/16 01:10:18;;;;;;;28.64;10.45;;;;;;;8.11;91.57;99305.81;2017721;80;20339;-77
2020/12/16 01:13:20;;;;;;;25.89;10.39;;;;;;;8.09;91.59;99308.38;2017492;80;20366;-77
2020/12/16 01:16:22;;;;;;;18.70;10.25;;;;;;;8.08;91.57;99310.97;2017615;80;20826;-77
2020/12/16 01:19:24;;;;;;;19.36;10.09;;;;;;;8.06;91.63;99308.34;2017132;80;20354;-77
2020/12/16 01:22:25;;;;;;;18.02;9.79;;;;;;;8.06;91.68;99320.41;2020978;80;20334;-76
2020/12/16 01:25:27;;;;;;;17.75;9.80;;;;;;;8.07;91.65;99322.13;2017968;80;20321;-76
2020/12/16 01:28:28;;;;;;;23.92;10.34;;;;;;;8.05;91.57;99324.72;2018045;80;20305;-76
2020/12/16 01:31:39;;;;;;;20.06;9.88;;;;;;;8.05;91.50;99326.44;2018058;80;20313;-78
2020/12/16 01:34:41;;;;;;;24.31;10.10;;;;;;;8.01;91.52;99325.56;2017901;80;20339;-77
2020/12/16 01:37:42;;;;;;;17.09;8.99;;;;;;;8.00;91.46;99334.19;2017889;80;20312;-77
2020/12/16 01:40:44;;;;;;;16.06;8.51;;;;;;;7.99;91.61;99344.53;2017644;80;20346;-77
2020/12/16 01:43:45;;;;;;;17.04;9.86;;;;;;;7.99;91.59;99344.53;2017178;80;20835;-77
2020/12/16 01:46:56;;;;;;;14.89;9.15;;;;;;;7.98;91.48;99341.06;2017738;80;20324;-76
2020/12/16 01:49:57;;;;;;;15.89;9.55;;;;;;;7.98;91.36;99350.53;2017218;80;20317;-77
2020/12/16 01:52:59;;;;;;;20.08;9.60;;;;;;;7.94;91.28;99351.41;2017227;80;20885;-77
2020/12/16 01:56:01;;;;;;;19.33;9.49;;;;;;;7.93;91.42;99355.69;2017365;80;20355;-78
2020/12/16 01:59:05;;;;;;;17.01;9.50;;;;;;;7.92;91.30;99355.69;2017118;80;20339;-77
2020/12/16 02:02:10;;;;;;;16.14;9.52;;;;;;;7.90;91.40;99350.53;2016936;80;20317;-78
2020/12/16 02:05:16;;;;;;;16.58;9.49;;;;;;;7.94;91.51;99353.97;2016990;80;20857;-77
2020/12/16 02:08:20;;;;;;;15.31;9.06;;;;;;;7.94;91.43;99356.56;2017469;80;20865;-77
2020/12/16 02:11:21;;;;;;;15.35;9.02;;;;;;;7.94;91.49;99351.41;2017721;80;20826;-77
2020/12/16 02:14:23;;;;;;;12.89;8.25;;;;;;;7.94;91.48;99353.97;2017783;80;20343;-77
2020/12/16 02:17:24;;;;;;;14.84;8.94;;;;;;;7.91;91.42;99348.78;2017785;80;20862;-77
2020/12/16 02:20:26;;;;;;;13.59;8.52;;;;;;;7.91;91.42;99351.38;2016979;80;20347;-77
2020/12/16 02:23:32;;;;;;;15.66;9.89;;;;;;;7.85;91.34;99334.09;2017940;80;20317;-77
2020/12/16 02:26:39;;;;;;;18.16;9.15;;;;;;;7.84;91.65;99335.81;2017471;80;20808;-77
2020/12/16 02:29:40;;;;;;;12.65;9.18;;;;;;;7.87;91.78;99335.81;2017904;80;20351;-76
2020/12/16 02:32:42;;;;;;;14.29;8.20;;;;;;;7.86;91.79;99336.69;2017207;80;20364;-77
2020/12/16 02:35:43;;;;;;;12.19;7.70;;;;;;;7.87;91.73;99338.41;2016827;80;20325;-77
2020/12/16 02:38:46;;;;;;;13.64;8.06;;;;;;;7.87;91.67;99337.56;2017528;80;20346;-77
2020/12/16 02:41:48;;;;;;;12.16;7.76;;;;;;;7.87;91.60;99332.38;2017261;80;20336;-77
2020/12/16 02:44:51;;;;;;;14.57;8.52;;;;;;;7.84;91.34;99328.06;2016686;80;21089;-76
2020/12/16 02:47:53;;;;;;;16.15;8.71;;;;;;;7.83;91.61;99323.75;2018665;80;20385;-77
2020/12/16 02:50:54;;;;;;;13.52;8.07;;;;;;;7.86;91.77;99320.31;2017002;80;20361;-77
2020/12/16 02:53:56;;;;;;;13.80;7.75;;;;;;;7.90;91.83;99327.25;2017951;80;20416;-77
2020/12/16 02:56:58;;;;;;;12.50;7.07;;;;;;;7.93;91.79;99324.69;2016421;80;20336;-77
2020/12/16 03:00:00;;;;;;;12.63;7.53;;;;;;;7.96;91.77;99323.81;2016253;80;21075;-76
2020/12/16 03:03:02;;;;;;;12.59;7.89;;;;;;;7.98;91.78;99324.69;2018367;80;20782;-77
2020/12/16 03:06:04;;;;;;;11.84;7.21;;;;;;;8.00;91.71;99325.56;2017687;80;20325;-77
2020/12/16 03:09:06;;;;;;;12.04;7.76;;;;;;;8.00;91.68;99321.25;2020723;80;20397;-78
2020/12/16 03:12:08;;;;;;;12.46;7.55;;;;;;;8.00;91.67;99320.38;2017165;80;20355;-77
2020/12/16 03:15:10;;;;;;;14.30;7.66;;;;;;;7.97;91.59;99322.97;2017649;80;20483;-77
2020/12/16 03:18:11;;;;;;;12.61;8.41;;;;;;;7.95;91.65;99322.97;2019011;80;20359;-78
2020/12/16 03:21:20;;;;;;;15.64;8.84;;;;;;;7.96;91.66;99322.09;2019540;80;20337;-77
2020/12/16 03:24:22;;;;;;;13.29;8.01;;;;;;;7.98;91.79;99322.09;2020398;80;20456;-77
2020/12/16 03:27:24;;;;;;;14.18;8.23;;;;;;;8.00;91.80;99325.56;2019107;80;20705;-77
2020/12/16 03:30:25;;;;;;;11.20;7.39;;;;;;;8.02;91.87;99327.28;2019545;80;20366;-77
2020/12/16 03:33:27;;;;;;;9.93;5.93;;;;;;;8.03;91.83;99322.97;2019656;80;20354;-77
2020/12/16 03:36:28;;;;;;;5.71;4.53;;;;;;;8.03;91.82;99323.84;2019000;80;20346;-77
2020/12/16 03:39:30;;;;;;;4.93;4.15;;;;;;;8.06;91.87;99323.84;2019046;80;20317;-77
2020/12/16 03:42:34;;;;;;;4.56;3.45;;;;;;;8.07;91.80;99325.59;2019206;80;20345;-77
2020/12/16 03:45:36;;;;;;;5.21;3.13;;;;;;;8.10;91.77;99322.19;2019231;80;20387;-78
2020/12/16 03:48:40;;;;;;;3.44;2.41;;;;;;;8.11;91.77;99326.50;2019481;80;20325;-78
2020/12/16 03:51:41;;;;;;;3.21;2.86;;;;;;;8.11;91.78;99326.50;2019376;80;20349;-78
2020/12/16 03:54:43;;;;;;;4.14;3.20;;;;;;;8.11;91.68;99329.06;2020119;80;20377;-78
2020/12/16 03:57:44;;;;;;;6.61;4.09;;;;;;;8.10;91.72;99330.78;2018445;80;20309;-78
2020/12/16 04:00:46;;;;;;;8.25;5.14;;;;;;;8.09;91.64;99333.38;2019879;80;20393;-78
2020/12/16 04:03:48;;;;;;;6.38;4.90;;;;;;;8.07;91.66;99340.22;2018009;80;20329;-78
2020/12/16 04:06:54;;;;;;;6.31;3.79;;;;;;;8.05;91.76;99340.22;2018120;80;20756;-78
2020/12/16 04:09:57;;;;;;;4.18;3.38;;;;;;;8.06;91.85;99339.38;2017550;80;20325;-78
2020/12/16 04:12:58;;;;;;;3.29;2.41;;;;;;;8.08;91.91;99339.41;2016664;80;20320;-78
2020/12/16 04:16:02;;;;;;;3.67;2.04;;;;;;;8.11;91.90;99332.53;2017731;80;20317;-78
2020/12/16 04:19:03;;;;;;;2.67;2.06;;;;;;;8.13;91.85;99340.28;2017483;80;20636;-79
2020/12/16 04:22:05;;;;;;;5.20;1.54;;;;;;;8.13;91.82;99335.97;2017907;80;20362;-78
2020/12/16 04:25:07;;;;;;;1.95;1.58;;;;;;;8.15;91.84;99326.50;2017861;80;20436;-78
2020/12/16 04:28:09;;;;;;;2.05;1.40;;;;;;;8.18;91.81;99321.34;2018650;80;20789;-78
2020/12/16 04:31:11;;;;;;;1.76;1.38;;;;;;;8.19;91.75;99322.19;2017515;80;20366;-78
2020/12/16 04:34:12;;;;;;;1.81;1.48;;;;;;;8.21;91.73;99317.03;2017173;80;20382;-78
2020/12/16 04:37:14;;;;;;;1.59;1.49;;;;;;;8.19;91.66;99307.53;2018208;80;20374;-77
2020/12/16 04:40:17;;;;;;;1.33;1.23;;;;;;;8.21;91.70;99310.13;2018034;80;20334;-77
2020/12/16 04:43:20;;;;;;;1.52;1.42;;;;;;;8.24;91.73;99319.63;2017793;80;20344;-77
2020/12/16 04:46:31;;;;;;;1.70;1.60;;;;;;;8.25;91.73;99327.38;2017507;80;20357;-77
2020/12/16 04:49:33;;;;;;;2.28;1.50;;;;;;;8.25;91.72;99319.63;2017622;80;21427;-77
2020/12/16 04:52:37;;;;;;;2.20;2.00;;;;;;;8.25;91.63;99327.38;2017046;80;20297;-76
2020/12/16 04:55:47;;;;;;;2.31;2.11;;;;;;;8.25;91.74;99321.34;2018075;80;20325;-76
2020/12/16 04:58:49;;;;;;;2.49;2.29;;;;;;;8.25;91.74;99324.78;2021776;80;20337;-76
2020/12/16 05:01:50;;;;;;;2.34;2.14;;;;;;;8.27;91.78;99319.66;2018133;80;20309;-77
2020/12/16 05:04:52;;;;;;;2.46;2.26;;;;;;;8.28;91.79;99326.56;2018684;80;20745;-76
2020/12/16 05:07:55;;;;;;;3.50;2.91;;;;;;;8.29;91.72;99336.03;2017154;80;20345;-77
2020/12/16 05:10:56;;;;;;;3.06;2.29;;;;;;;8.28;91.79;99326.56;2018595;80;20357;-78
2020/12/16 05:14:30;;;;;;;3.54;2.38;;;;;;;8.27;91.80;99324.84;2018356;80;20339;-77
2020/12/16 05:17:31;;;;;;;3.15;2.85;;;;;;;8.26;91.75;99328.25;2012913;80;20389;-76
2020/12/16 05:20:34;;;;;;;2.59;2.10;;;;;;;8.29;91.83;99334.31;2017508;80;20317;-77
2020/12/16 05:23:36;;;;;;;2.24;1.98;;;;;;;8.30;91.89;99332.59;2017124;80;20355;-77
2020/12/16 05:26:37;;;;;;;3.69;2.88;;;;;;;8.31;91.88;99335.19;2018255;80;20428;-76
2020/12/16 05:29:39;;;;;;;3.66;2.69;;;;;;;8.34;91.85;99336.94;2017722;80;20345;-76
2020/12/16 05:32:41;;;;;;;2.14;1.88;;;;;;;8.37;91.90;99342.13;2018348;80;20335;-77
2020/12/16 05:35:45;;;;;;;2.16;1.96;;;;;;;8.39;91.84;99343.00;2018125;80;20386;-76
2020/12/16 05:38:54;;;;;;;2.44;2.24;;;;;;;8.40;91.80;99347.31;2017670;80;20337;-77
2020/12/16 05:41:55;;;;;;;2.03;1.84;;;;;;;8.41;91.78;99349.91;2017309;80;20427;-77
2020/12/16 05:45:05;;;;;;;2.49;2.06;;;;;;;8.42;91.72;99349.03;2017664;80;20371;-78
2020/12/16 05:48:09;;;;;;;2.31;2.08;;;;;;;8.43;91.67;99353.34;2017660;80;20343;-76
2020/12/16 05:51:16;;;;;;;2.29;2.09;;;;;;;8.46;91.65;99353.38;2017267;80;20328;-76
2020/12/16 05:54:18;;;;;;;4.59;2.04;;;;;;;8.43;91.51;99350.75;2017382;80;20386;-76
2020/12/16 05:57:25;;;;;;;3.96;1.88;;;;;;;8.41;91.43;99357.66;2017908;80;20738;-75
2020/12/16 06:00:26;;;;;;;2.24;2.04;;;;;;;8.42;91.52;99361.09;2017378;80;21283;-76
2020/12/16 06:03:36;;;;;;;2.09;1.98;;;;;;;8.41;91.47;99355.06;2017900;80;20354;-76
2020/12/16 06:06:38;;;;;;;1.81;1.71;;;;;;;8.41;91.45;99359.38;2017049;80;20345;-77
2020/12/16 06:09:39;;;;;;;2.28;2.06;;;;;;;8.40;91.42;99355.94;2017700;80;20338;-75
2020/12/16 06:12:43;;;;;;;2.10;1.90;;;;;;;8.38;91.44;99368.00;2017334;80;20317;-75
2020/12/16 06:15:48;;;;;;;2.13;1.92;;;;;;;8.39;91.53;99367.16;2017043;80;20309;-76
2020/12/16 06:18:51;;;;;;;1.95;1.85;;;;;;;8.41;91.52;99367.16;2017191;80;20354;-76
2020/12/16 06:21:58;;;;;;;2.35;2.15;;;;;;;8.40;91.52;99365.41;2016380;80;20364;-76
2020/12/16 06:25:08;;;;;;;1.96;1.86;;;;;;;8.41;91.49;99373.19;2015411;80;20358;-76
2020/12/16 06:28:12;;;;;;;3.11;1.91;;;;;;;8.42;91.46;99374.91;2015963;80;20345;-76
2020/12/16 06:31:25;;;;;;;3.42;2.36;;;;;;;8.45;91.48;99376.69;2016607;80;20393;-76
2020/12/16 06:34:28;;;;;;;5.50;4.56;;;;;;;8.46;91.44;99374.09;2018772;80;20398;-76
2020/12/16 06:37:30;;;;;;;4.97;3.85;;;;;;;8.51;91.48;99375.81;2019091;80;20495;-76
2020/12/16 06:40:45;;;;;;;5.36;3.80;;;;;;;8.53;91.51;99371.50;2018408;80;20845;-75
2020/12/16 06:43:52;;;;;;;5.01;4.07;;;;;;;8.56;91.49;99379.28;2019198;80;20681;-76
2020/12/16 06:46:57;;;;;;;4.95;4.05;;;;;;;8.61;91.49;99374.97;2018677;80;20408;-74
2020/12/16 06:50:15;;;;;;;5.64;4.28;;;;;;;8.63;91.44;99384.50;2018618;80;21150;-74
2020/12/16 06:53:23;;;;;;;4.96;3.53;;;;;;;8.65;91.42;99382.78;2018356;80;20742;-76
2020/12/16 06:56:24;;;;;;;3.81;3.51;;;;;;;8.67;91.34;99390.53;2018035;80;20336;-75
2020/12/16 06:59:46;;;;;;;3.67;3.29;;;;;;;8.68;91.18;99384.50;2018576;80;20309;-75
2020/12/16 07:02:48;;;;;;;4.51;3.72;;;;;;;8.66;91.06;99392.28;2018370;80;20348;-73
2020/12/16 07:05:50;;;;;;;4.65;3.85;;;;;;;8.66;91.03;99391.41;2018734;80;20337;-77
2020/12/16 07:09:23;;;;;;;4.22;3.83;;;;;;;8.66;90.97;99384.50;2018979;80;20333;-77
2020/12/16 07:12:29;;;;;;;7.49;4.55;;;;;;;8.68;90.93;99384.50;2018795;80;20335;-74
2020/12/16 07:16:05;;;;;;;4.36;3.96;;;;;;;8.69;90.97;99383.66;2018623;80;20343;-73
2020/12/16 07:19:08;;;;;;;5.43;4.09;;;;;;;8.70;90.89;99388.81;2017830;80;20341;-74
2020/12/16 07:22:16;;;;;;;3.71;3.41;;;;;;;8.71;90.83;99393.13;2018324;80;20370;-74
2020/12/16 07:25:19;;;;;;;3.84;3.40;;;;;;;8.69;90.69;99392.28;2017974;80;20815;-72
2020/12/16 07:28:21;;;;;;;3.55;3.25;;;;;;;8.68;90.72;99381.91;2018199;80;20167;-73
2020/12/16 07:31:24;;;;;;;4.35;3.90;;;;;;;8.68;90.59;99381.91;2017936;80;20367;-73
2020/12/16 07:34:28;;;;;;;4.20;3.80;;;;;;;8.69;90.65;99388.81;2018297;80;20340;-73
2020/12/16 07:37:32;;;;;;;3.22;3.03;;;;;;;8.70;90.63;99394.00;2018103;80;20321;-73
2020/12/16 07:40:34;;;;;;;3.83;3.51;;;;;;;8.73;90.62;99396.59;2019042;80;20325;-75
2020/12/16 07:43:36;;;;;;;3.41;3.19;;;;;;;8.76;90.60;99385.38;2018454;80;20329;-75
2020/12/16 07:46:59;;;;;;;3.15;2.95;;;;;;;8.76;90.54;99382.78;2018283;80;20864;-76
2020/12/16 07:50:02;;;;;;;3.49;2.94;;;;;;;8.79;90.53;99386.25;2017804;80;20325;-75
2020/12/16 07:53:04;;;;;;;2.90;2.70;;;;;;;8.82;90.44;99392.31;2017483;80;20292;-77
2020/12/16 07:56:06;;;;;;;3.53;3.30;;;;;;;8.82;90.39;99393.19;2018671;80;20317;-74
2020/12/16 07:59:13;;;;;;;3.75;3.45;;;;;;;8.86;90.28;99399.22;2017908;80;20428;-75
2020/12/16 08:02:15;;;;;;;3.06;2.86;;;;;;;8.85;90.11;99400.94;2018616;80;20385;-76
2020/12/16 08:05:17;;;;;;;3.59;3.25;;;;;;;8.83;90.07;99405.25;2018487;80;20787;-76
2020/12/16 08:08:18;;;;;;;3.79;3.50;;;;;;;8.85;90.12;99400.09;2017718;80;20321;-77
2020/12/16 08:11:28;;;;;;;4.03;3.72;;;;;;;8.85;90.11;99398.38;2018490;80;20392;-76
2020/12/16 08:14:29;;;;;;;3.96;3.63;;;;;;;8.89;90.06;99394.91;2018009;80;21061;-77
2020/12/16 08:17:36;;;;;;;3.96;3.66;;;;;;;8.91;89.99;99392.31;2018609;80;20343;-77
2020/12/16 08:20:37;;;;;;;4.07;3.75;;;;;;;8.92;89.91;99397.50;2018315;80;20355;-77
2020/12/16 08:23:39;;;;;;;4.54;4.14;;;;;;;8.93;89.83;99398.38;2017664;80;20325;-76
2020/12/16 08:26:41;;;;;;;4.22;3.84;;;;;;;8.94;89.78;99400.97;2017352;80;20317;-76
2020/12/16 08:29:43;;;;;;;4.51;4.11;;;;;;;8.97;89.89;99407.88;2017501;80;20664;-76
2020/12/16 08:33:07;;;;;;;4.11;3.81;;;;;;;8.98;89.89;99407.91;2018256;80;20400;-77
2020/12/16 08:36:14;;;;;;;5.70;3.46;;;;;;;9.01;89.98;99413.09;2017781;80;20419;-76
2020/12/16 08:39:23;;;;;;;5.40;4.00;;;;;;;9.04;89.96;99413.09;2018151;80;20355;-75
2020/12/16 08:42:25;;;;;;;4.32;3.81;;;;;;;9.06;89.86;99410.50;2018313;80;20340;-76
2020/12/16 08:45:28;;;;;;;4.35;4.00;;;;;;;9.05;89.72;99404.44;2018318;80;20309;-78
2020/12/16 08:49:10;;;;;;;4.34;3.96;;;;;;;9.05;89.69;99409.63;2017274;80;20325;-76
2020/12/16 08:52:12;;;;;;;4.11;3.81;;;;;;;9.08;89.75;99398.41;2016478;80;20423;-75
2020/12/16 08:55:21;;;;;;;4.34;3.97;;;;;;;9.16;89.84;99388.06;2017306;80;20340;-76
2020/12/16 08:58:23;;;;;;;;;;;;;;;9.23;89.85;99382.88;2017326;80;20866;-76
2020/12/16 09:01:24;;;;;;;3.97;3.67;;;;;;;9.27;89.70;99384.59;2011530;80;20212;-75
2020/12/16 09:04:30;;;;;;;4.56;4.16;;;;;;;9.25;89.26;99395.84;2011167;80;20607;-74
2020/12/16 09:07:35;;;;;;;7.65;3.92;;;;;;;9.19;89.18;99395.84;2014220;80;20434;-75
2020/12/16 09:10:38;;;;;;;4.97;4.47;;;;;;;9.17;89.13;99394.97;2015424;80;21497;-76
2020/12/16 09:13:40;;;;;;;4.24;3.84;;;;;;;9.14;88.97;99392.34;2014735;80;20341;-75
2020/12/16 09:16:42;;;;;;;5.13;3.85;;;;;;;9.13;89.02;99394.09;2014883;80;20338;-74
2020/12/16 09:19:44;;;;;;;4.03;3.65;;;;;;;9.09;88.99;99402.72;2014499;80;20806;-75
2020/12/16 09:22:53;;;;;;;3.99;3.66;;;;;;;9.08;89.11;99396.69;2012345;80;20325;-75
2020/12/16 09:25:56;;;;;;;4.14;3.53;;;;;;;9.14;89.21;99407.91;2011832;80;20337;-76
2020/12/16 09:28:58;;;;;;;4.53;3.66;;;;;;;9.17;89.10;99402.75;2016976;80;20369;-75
2020/12/16 09:32:07;;;;;;;4.11;3.71;;;;;;;9.25;89.04;99408.78;2018325;80;20357;-75
2020/12/16 09:35:10;;;;;;;4.10;3.40;;;;;;;9.33;89.23;99420.88;2017095;80;20696;-74
2020/12/16 09:38:16;;;;;;;4.28;3.88;;;;;;;9.41;89.20;99420.91;2017670;80;20348;-75
2020/12/16 09:41:18;;;;;;;4.00;3.70;;;;;;;9.49;89.04;99413.97;2017422;80;20361;-76
2020/12/16 09:44:30;;;;;;;3.96;3.61;;;;;;;9.54;88.84;99417.47;2018060;80;20317;-76
2020/12/16 09:47:44;;;;;;;3.29;3.00;;;;;;;9.62;88.67;99412.25;2017115;80;20337;-76
2020/12/16 09:50:45;;;;;;;3.40;2.97;;;;;;;9.68;88.39;99410.50;2017244;80;20305;-77
2020/12/16 09:53:47;;;;;;;4.31;3.20;;;;;;;9.72;88.16;99410.53;2017176;80;20342;-76
2020/12/16 09:56:49;;;;;;;3.81;3.28;;;;;;;9.74;87.86;99403.63;2015991;80;20809;-77
2020/12/16 09:59:51;;;;;;;2.97;2.74;;;;;;;9.78;87.69;99401.03;2016350;80;20354;-79
2020/12/16 10:03:00;;;;;;;3.10;2.90;;;;;;;9.84;87.77;99398.41;2015612;80;20860;-77
2020/12/16 10:06:02;;;;;;;5.04;2.46;;;;;;;9.89;87.77;99388.06;2016883;80;20471;-77
2020/12/16 10:09:04;;;;;;;3.11;2.55;;;;;;;9.92;87.82;99381.13;2018213;80;20398;-78
2020/12/16 10:12:06;;;;;;;2.76;2.53;;;;;;;10.02;87.83;99384.53;2017184;80;20933;-77
2020/12/16 10:15:08;;;;;;;2.67;2.36;;;;;;;10.11;87.70;99378.47;2020173;80;20339;-77
2020/12/16 10:18:09;;;;;;;3.06;2.83;;;;;;;10.22;87.45;99375.00;2017633;80;20305;-77
2020/12/16 10:21:11;;;;;;;2.45;2.25;;;;;;;10.35;87.27;99374.97;2017231;80;20213;-77
2020/12/16 10:24:14;;;;;;;2.41;2.31;;;;;;;10.42;86.97;99374.94;2017182;80;20184;-78
2020/12/16 10:27:17;;;;;;;2.49;2.25;;;;;;;10.49;86.64;99376.66;2017530;80;20203;-77
2020/12/16 10:30:24;;;;;;;3.50;1.80;;;;;;;10.53;86.24;99374.88;2017867;80;20341;-79
2020/12/16 10:33:25;;;;;;;1.90;1.69;;;;;;;10.57;86.22;99374.84;2013857;80;20781;-77
2020/12/16 10:36:29;;;;;;;3.11;1.69;;;;;;;10.59;85.62;99372.25;2017502;80;20172;-78
2020/12/16 10:39:31;;;;;;;2.15;1.61;;;;;;;10.66;85.80;99370.50;2017822;80;20179;-74
2020/12/16 10:42:33;;;;;;;1.60;1.50;;;;;;;10.69;85.72;99367.91;2017922;80;20207;-72
2020/12/16 10:45:34;;;;;;;1.50;1.40;;;;;;;10.75;85.01;99367.84;2017335;80;20912;-73
2020/12/16 10:48:36;;;;;;;3.00;1.76;;;;;;;10.79;84.49;99365.25;2017684;80;20180;-72
2020/12/16 10:51:38;;;;;;;1.46;1.36;;;;;;;10.83;84.09;99358.28;2017734;80;20160;-72
2020/12/16 10:54:40;;;;;;;2.24;1.42;;;;;;;10.83;83.90;99353.97;2017396;80;20193;-72
2020/12/16 10:57:42;;;;;;;2.16;1.46;;;;;;;10.87;83.73;99347.00;2017429;80;20659;-72
2020/12/16 11:00:43;;;;;;;1.77;1.40;;;;;;;10.95;83.86;99347.84;2017616;80;20209;-73
2020/12/16 11:03:46;;;;;;;1.49;1.38;;;;;;;11.01;83.70;99347.78;2017897;80;20193;-73
2020/12/16 11:06:49;;;;;;;4.64;4.24;;;;;;;11.07;83.51;99345.13;2017376;80;20187;-74
2020/12/16 11:09:50;;;;;;;2.00;1.77;;;;;;;11.09;83.33;99356.38;2018516;80;20189;-74
2020/12/16 11:12:52;;;;;;;1.70;1.60;;;;;;;11.12;83.54;99353.75;2018069;80;20229;-72
2020/12/16 11:15:54;;;;;;;36.40;25.16;;;;;;;11.11;83.28;99353.75;2018679;80;20211;-72
2020/12/16 11:18:55;;;;;;;22.69;17.33;;;;;;;11.06;83.38;99350.34;2017613;80;20577;-72
2020/12/16 11:21:57;;;;;;;4.99;4.49;;;;;;;11.02;83.23;99366.84;2017627;80;20163;-73
2020/12/16 11:24:58;;;;;;;2.69;2.49;;;;;;;11.03;83.16;99358.16;2017728;80;20200;-72
2020/12/16 11:28:00;;;;;;;2.83;2.39;;;;;;;11.06;83.27;99350.34;2017715;80;20325;-73
2020/12/16 11:31:02;;;;;;;4.72;1.40;;;;;;;11.07;82.55;99354.66;2021685;80;20167;-72
2020/12/16 11:34:07;;;;;;;1.74;1.50;;;;;;;11.15;82.65;99351.16;2018313;80;20237;-73
2020/12/16 11:37:09;;;;;;;1.99;1.85;;;;;;;11.23;83.02;99345.88;2017843;80;20240;-73
2020/12/16 11:40:11;;;;;;;2.56;2.03;;;;;;;11.29;82.78;99334.56;2017901;80;20164;-72
2020/12/16 11:43:13;;;;;;;2.08;1.88;;;;;;;11.31;82.09;99344.09;2018572;80;20172;-73
2020/12/16 11:46:15;;;;;;;1.96;1.55;;;;;;;11.35;81.65;99340.59;2017825;80;20228;-72
2020/12/16 11:49:19;;;;;;;1.40;1.30;;;;;;;11.34;81.29;99338.88;2012510;80;20879;-72
2020/12/16 11:52:20;;;;;;;1.80;1.70;;;;;;;11.40;81.21;99335.34;2012248;80;20176;-73
2020/12/16 11:55:22;;;;;;;1.75;1.60;;;;;;;11.43;80.64;99333.59;2014536;80;20214;-72
2020/12/16 11:58:24;;;;;;;3.09;1.60;;;;;;;11.42;80.50;99326.66;2016365;80;20175;-72
2020/12/16 12:01:25;;;;;;;1.50;1.40;;;;;;;11.50;80.23;99324.00;2016086;80;20636;-72
2020/12/16 12:04:27;;;;;;;3.06;2.58;;;;;;;11.49;79.61;99317.94;2015741;80;20568;-73
2020/12/16 12:07:29;;;;;;;2.19;2.00;;;;;;;11.48;79.63;99318.78;2018651;80;20175;-73
2020/12/16 12:10:30;;;;;;;2.72;1.89;;;;;;;11.47;79.84;99316.22;2013687;80;20304;-72
2020/12/16 12:13:32;;;;;;;1.56;1.41;;;;;;;11.42;79.62;99313.66;2012047;80;20176;-72
2020/12/16 12:16:33;;;;;;;2.65;1.54;;;;;;;11.42;79.70;99318.84;2011886;80;21198;-72
2020/12/16 12:19:37;;;;;;;1.60;1.50;;;;;;;11.34;78.81;99315.47;2014869;80;20175;-73
2020/12/16 12:22:39;;;;;;;2.64;1.50;;;;;;;11.29;79.34;99316.38;2013948;80;20199;-71
2020/12/16 12:25:40;;;;;;;2.17;1.69;;;;;;;11.20;79.39;99320.78;2014161;80;20224;-71
2020/12/16 12:28:42;;;;;;;1.33;1.23;;;;;;;11.13;78.97;99308.72;2012123;80;21216;-72
2020/12/16 12:31:44;;;;;;;1.39;1.24;;;;;;;11.15;78.99;99306.13;2011995;80;20935;-71
2020/12/16 12:34:46;;;;;;;1.34;1.24;;;;;;;11.19;79.06;99311.25;2009387;80;20777;-71
2020/12/16 12:37:47;;;;;;;3.78;3.55;;;;;;;11.18;79.03;99304.34;2010451;80;20192;-71
2020/12/16 12:40:49;;;;;;;1.40;1.30;;;;;;;11.19;78.83;99303.47;2012234;80;20744;-72
2020/12/16 12:43:51;;;;;;;1.30;1.20;;;;;;;11.19;78.54;99294.81;2012307;80;20175;-72
2020/12/16 12:46:52;;;;;;;1.44;1.34;;;;;;;11.21;78.42;99298.25;2012460;80;20172;-72
2020/12/16 12:49:54;;;;;;;1.39;1.29;;;;;;;11.22;78.35;99301.72;2012916;80;20207;-72
2020/12/16 12:52:55;;;;;;;1.64;1.35;;;;;;;11.23;78.88;99291.31;2013930;80;20171;-72
2020/12/16 12:55:57;;;;;;;1.75;1.27;;;;;;;11.20;78.94;99299.13;2011245;80;20209;-72
2020/12/16 12:58:58;;;;;;;1.64;1.40;;;;;;;11.11;79.00;99288.81;2011311;80;20630;-72
2020/12/16 13:02:00;;;;;;;1.52;1.29;;;;;;;11.13;79.69;99284.44;2013963;80;20380;-72
2020/12/16 13:05:05;;;;;;;1.35;1.23;;;;;;;11.10;79.81;99281.88;2017624;80;20191;-72
2020/12/16 13:08:07;;;;;;;1.56;1.46;;;;;;;11.10;79.80;99280.16;2013943;80;20179;-72
2020/12/16 13:11:10;;;;;;;1.20;1.20;;;;;;;11.11;79.83;99278.41;2014926;80;20176;-72
2020/12/16 13:14:12;;;;;;;1.69;1.59;;;;;;;11.12;79.99;99290.53;2015634;80;20203;-71
2020/12/16 13:17:13;;;;;;;2.26;2.06;;;;;;;11.10;79.91;99287.94;2012635;80;20213;-72
2020/12/16 13:20:16;;;;;;;2.15;1.58;;;;;;;11.08;79.60;99291.44;2012100;80;20211;-72
2020/12/16 13:23:17;;;;;;;4.19;1.79;;;;;;;11.05;79.67;99276.72;2013558;80;20709;-77
2020/12/16 13:26:19;;;;;;;2.15;1.95;;;;;;;11.05;79.88;99286.25;2015635;80;20191;-72
2020/12/16 13:29:21;;;;;;;1.59;1.49;;;;;;;11.07;79.93;99279.31;2017939;80;20189;-72
2020/12/16 13:32:23;;;;;;;1.70;1.60;;;;;;;10.99;79.86;99284.59;2017821;80;20197;-72
2020/12/16 13:35:25;;;;;;;1.95;1.85;;;;;;;10.97;79.64;99283.75;2018193;80;20199;-72
2020/12/16 13:38:33;;;;;;;2.13;1.58;;;;;;;10.94;79.77;99282.88;2017215;80;20697;-72
2020/12/16 13:41:35;;;;;;;2.58;1.92;;;;;;;10.91;80.16;99278.56;2017776;80;20199;-73
2020/12/16 13:44:36;;;;;;;1.64;1.38;;;;;;;10.93;80.37;99279.41;2017557;80;20193;-72
2020/12/16 13:47:38;;;;;;;1.79;1.69;;;;;;;10.94;80.55;99273.34;2018141;80;20193;-71
2020/12/16 13:50:40;;;;;;;2.01;1.91;;;;;;;10.95;80.68;99279.41;2017418;80;20499;-71
2020/12/16 13:53:41;;;;;;;2.06;1.92;;;;;;;10.93;80.81;99276.81;2017514;80;20545;-74
2020/12/16 13:56:43;;;;;;;1.90;1.80;;;;;;;10.94;80.81;99278.53;2018098;80;20167;-74
2020/12/16 13:59:44;;;;;;;7.28;5.30;;;;;;;10.93;80.99;99283.75;2017769;80;20179;-75
2020/12/16 14:02:48;;;;;;;3.34;3.04;;;;;;;10.93;81.27;99283.75;2017172;80;20454;-72
2020/12/16 14:05:50;;;;;;;2.31;2.11;;;;;;;10.95;81.11;99279.41;2017485;80;20187;-73
2020/12/16 14:08:52;;;;;;;2.16;1.94;;;;;;;10.95;81.09;99271.59;2016538;80;20197;-72
2020/12/16 14:11:54;;;;;;;2.86;1.76;;;;;;;10.95;81.09;99279.41;2016588;80;20209;-72
2020/12/16 14:14:55;;;;;;;2.16;2.00;;;;;;;10.95;81.11;99280.28;2017838;80;20168;-72
2020/12/16 14:17:57;;;;;;;1.81;1.70;;;;;;;10.94;81.01;99285.47;2017705;80;20172;-72
2020/12/16 14:21:02;;;;;;;2.39;1.56;;;;;;;10.90;80.93;99279.44;2017247;80;20205;-72
2020/12/16 14:24:03;;;;;;;2.01;1.81;;;;;;;10.89;80.75;99285.50;2017543;80;20175;-72
2020/12/16 14:27:05;;;;;;;2.04;1.65;;;;;;;10.88;80.63;99274.25;2017697;80;20228;-73